Time;durP1;ratioP1;P1;durP2;ratioP2;P2;SDS_P1;SDS_P2;PMS_P1;PMS_P2;Temp;Humidity;BMP_temperature;BMP_pressure;BME280_temperature;BME280_humidity;BME280_pressure;Samples;Min_cycle;Max_cycle;Signal;HPM_P1;HPM_P2
2022/11/30 00:01:21;;;;;;;7.13;4.82;;;23.60;99.90;;;;;;5034660;28;20056;-50
2022/11/30 00:03:48;;;;;;;7.85;5.68;;;23.60;99.90;;;;;;5034850;28;20071;-50
2022/11/30 00:06:21;;;;;;;8.07;5.07;;;23.50;99.90;;;;;;5034865;28;20026;-50
2022/11/30 00:08:48;;;;;;;7.82;5.53;;;23.60;99.90;;;;;;5034645;28;20013;-50
2022/11/30 00:11:20;;;;;;;9.38;5.80;;;23.50;99.90;;;;;;5034694;28;20080;-49
2022/11/30 00:13:46;;;;;;;8.38;5.10;;;23.50;99.90;;;;;;5034579;28;20034;-50
2022/11/30 00:16:12;;;;;;;8.00;5.03;;;23.50;99.90;;;;;;5034630;28;20021;-50
2022/11/30 00:18:38;;;;;;;7.88;5.25;;;23.50;99.90;;;;;;5034804;28;20037;-49
2022/11/30 00:21:07;;;;;;;10.80;5.10;;;23.50;99.90;;;;;;5034395;28;20398;-50
2022/11/30 00:23:41;;;;;;;7.35;4.55;;;23.50;99.90;;;;;;5034557;28;20374;-50
2022/11/30 00:26:10;;;;;;;9.40;4.90;;;23.40;99.90;;;;;;5034249;28;20025;-49
2022/11/30 00:28:36;;;;;;;6.88;4.80;;;23.40;99.90;;;;;;5034406;28;20060;-49
2022/11/30 00:31:09;;;;;;;6.95;4.90;;;23.40;99.90;;;;;;5034576;28;20112;-49
2022/11/30 00:33:36;;;;;;;7.03;4.95;;;23.30;99.90;;;;;;5019206;28;20065;-49
2022/11/30 00:36:05;;;;;;;7.90;4.43;;;23.30;99.90;;;;;;5034427;28;20473;-49
2022/11/30 00:38:31;;;;;;;6.32;4.75;;;23.40;99.90;;;;;;5034488;28;20029;-48
2022/11/30 00:40:58;;;;;;;7.38;4.57;;;23.30;99.90;;;;;;5034413;28;20018;-49
2022/11/30 00:43:23;;;;;;;7.45;5.25;;;23.30;99.90;;;;;;5034010;28;20033;-48
2022/11/30 00:45:49;;;;;;;7.85;5.13;;;23.30;99.90;;;;;;5015247;28;20022;-49
2022/11/30 00:48:15;;;;;;;7.78;5.50;;;23.30;99.90;;;;;;5024059;28;20535;-49
2022/11/30 00:50:41;;;;;;;7.72;5.05;;;23.20;99.90;;;;;;5033912;28;20045;-49
2022/11/30 00:53:06;;;;;;;6.93;4.55;;;23.20;99.90;;;;;;5033967;28;20041;-49
2022/11/30 00:55:32;;;;;;;7.22;4.78;;;23.20;99.90;;;;;;5034259;28;20018;-49
2022/11/30 00:57:59;;;;;;;7.63;4.75;;;23.20;99.90;;;;;;5033779;28;20128;-48
2022/11/30 01:00:25;;;;;;;9.63;4.70;;;23.20;99.90;;;;;;5034308;28;20056;-49
2022/11/30 01:02:55;;;;;;;9.02;4.70;;;23.20;99.90;;;;;;5033708;28;20025;-49
2022/11/30 01:05:21;;;;;;;6.70;4.72;;;23.20;99.90;;;;;;5033517;28;20510;-49
2022/11/30 01:07:46;;;;;;;9.27;5.10;;;23.10;99.90;;;;;;5033583;28;20101;-49
2022/11/30 01:10:12;;;;;;;7.43;4.85;;;23.10;99.90;;;;;;5033052;28;20109;-50
2022/11/30 01:12:38;;;;;;;6.65;4.50;;;23.10;99.90;;;;;;5033433;28;20080;-49
2022/11/30 01:15:04;;;;;;;6.72;4.40;;;23.10;99.90;;;;;;5033845;28;20032;-49
2022/11/30 01:17:30;;;;;;;7.15;4.28;;;23.10;99.90;;;;;;5033401;28;20068;-49
2022/11/30 01:19:55;;;;;;;7.07;4.13;;;23.10;99.90;;;;;;5025475;28;20049;-49
2022/11/30 01:22:21;;;;;;;6.38;4.28;;;23.10;99.90;;;;;;5023178;28;20032;-49
2022/11/30 01:24:47;;;;;;;6.40;4.13;;;23.00;99.90;;;;;;5033154;28;20026;-49
2022/11/30 01:27:12;;;;;;;7.10;4.15;;;23.00;99.90;;;;;;5033380;28;20018;-49
2022/11/30 01:29:38;;;;;;;5.65;3.80;;;23.00;99.90;;;;;;5033480;28;20072;-49
2022/11/30 01:32:04;;;;;;;6.03;4.18;;;23.00;99.90;;;;;;5033803;28;20123;-49
2022/11/30 01:34:30;;;;;;;6.63;4.10;;;23.00;99.90;;;;;;5031913;28;20029;-50
2022/11/30 01:36:56;;;;;;;6.35;4.00;;;23.00;99.90;;;;;;5033139;28;20025;-49
2022/11/30 01:39:21;;;;;;;5.57;3.95;;;23.00;99.90;;;;;;5033404;28;20029;-49
2022/11/30 01:41:47;;;;;;;6.95;4.03;;;22.90;99.90;;;;;;5032936;28;20033;-50
2022/11/30 01:44:13;;;;;;;7.22;4.38;;;22.90;99.90;;;;;;5033184;28;20072;-49
2022/11/30 01:46:47;;;;;;;7.20;4.55;;;22.90;99.90;;;;;;5032940;28;20021;-50
2022/11/30 01:49:18;;;;;;;5.50;3.55;;;22.90;99.90;;;;;;5031749;28;20076;-49
2022/11/30 01:52:14;;;;;;;5.43;4.03;;;22.90;99.90;;;;;;5032685;28;20112;-50
2022/11/30 01:54:58;;;;;;;7.88;4.05;;;22.90;99.90;;;;;;5032809;28;20026;-49
2022/11/30 01:57:29;;;;;;;5.00;3.42;;;22.80;99.90;;;;;;5033033;28;20036;-50
2022/11/30 01:59:59;;;;;;;7.45;4.43;;;22.80;99.90;;;;;;5040764;22;20061;-47
2022/11/30 02:02:39;;;;;;;5.50;3.80;;;22.80;99.90;;;;;;5021576;28;20108;-46
2022/11/30 02:05:06;;;;;;;5.13;3.78;;;22.80;99.90;;;;;;5032530;28;20542;-47
2022/11/30 02:07:32;;;;;;;4.22;3.38;;;22.80;99.90;;;;;;5014940;28;20022;-47
2022/11/30 02:09:58;;;;;;;4.57;3.33;;;22.80;99.90;;;;;;5032621;28;20033;-47
2022/11/30 02:12:39;;;;;;;5.13;3.30;;;22.80;99.90;;;;;;5032614;28;20051;-46
2022/11/30 02:15:09;;;;;;;4.85;3.30;;;22.70;99.90;;;;;;5032402;28;20028;-46
2022/11/30 02:18:00;;;;;;;6.63;3.85;;;22.70;99.90;;;;;;5030988;28;20033;-46
2022/11/30 02:21:00;;;;;;;4.65;3.75;;;22.70;99.90;;;;;;5032480;28;20036;-47
2022/11/30 02:23:38;;;;;;;6.10;3.65;;;22.70;99.90;;;;;;5032464;28;20079;-48
2022/11/30 02:26:22;;;;;;;5.72;3.85;;;22.70;99.90;;;;;;5032193;28;20021;-46
2022/11/30 02:29:00;;;;;;;5.25;3.28;;;22.70;99.90;;;;;;5032239;28;20028;-46
2022/11/30 02:31:32;;;;;;;5.80;3.17;;;22.70;99.90;;;;;;5032378;28;20039;-46
2022/11/30 02:34:00;;;;;;;5.68;3.08;;;22.70;99.90;;;;;;5024364;28;20433;-47
2022/11/30 02:36:27;;;;;;;5.10;3.28;;;22.60;99.90;;;;;;5011580;28;20030;-47
2022/11/30 02:38:54;;;;;;;4.10;3.30;;;22.70;99.90;;;;;;5032270;28;20022;-46
2022/11/30 02:41:20;;;;;;;4.90;3.35;;;22.60;99.90;;;;;;5030776;28;20036;-47
2022/11/30 02:43:45;;;;;;;6.03;3.90;;;22.60;99.90;;;;;;5032096;28;20014;-47
2022/11/30 02:46:28;;;;;;;4.65;3.00;;;22.60;99.90;;;;;;5032121;28;20021;-47
2022/11/30 02:49:18;;;;;;;6.88;2.92;;;22.60;99.90;;;;;;5032184;28;20014;-47
2022/11/30 02:51:45;;;;;;;5.97;3.20;;;22.60;99.90;;;;;;5031693;28;20397;-47
2022/11/30 02:54:11;;;;;;;4.82;3.28;;;22.60;99.90;;;;;;5031985;28;20043;-46
2022/11/30 02:56:37;;;;;;;6.00;3.40;;;22.60;99.90;;;;;;5031874;28;20085;-47
2022/11/30 02:59:03;;;;;;;4.28;3.17;;;22.60;99.90;;;;;;5031682;28;20030;-47
2022/11/30 03:01:29;;;;;;;4.15;2.70;;;22.60;99.90;;;;;;5035853;22;20522;-49
2022/11/30 03:03:55;;;;;;;4.18;3.13;;;22.60;99.90;;;;;;5012238;28;20117;-48
2022/11/30 03:06:21;;;;;;;4.40;2.90;;;22.60;99.90;;;;;;5012089;28;20125;-49
2022/11/30 03:08:47;;;;;;;4.65;2.95;;;22.60;99.90;;;;;;5012113;28;20053;-48
2022/11/30 03:11:12;;;;;;;5.28;3.38;;;22.50;99.90;;;;;;5012136;28;20132;-48
2022/11/30 03:13:38;;;;;;;4.88;3.10;;;22.50;99.90;;;;;;5010770;28;20458;-48
2022/11/30 03:16:08;;;;;;;5.43;2.80;;;22.50;99.90;;;;;;5012082;28;20069;-48
2022/11/30 03:18:35;;;;;;;4.88;2.60;;;22.50;99.90;;;;;;5011972;28;20044;-49
2022/11/30 03:21:05;;;;;;;4.40;2.83;;;22.50;99.90;;;;;;5010847;28;20029;-48
2022/11/30 03:23:31;;;;;;;4.50;3.08;;;22.50;99.90;;;;;;5012188;28;20427;-50
2022/11/30 03:25:57;;;;;;;6.85;3.33;;;22.50;99.90;;;;;;5012125;28;20064;-49
2022/11/30 03:28:24;;;;;;;4.32;2.75;;;22.50;99.90;;;;;;5011904;28;20034;-48
2022/11/30 03:30:50;;;;;;;3.92;3.00;;;22.50;99.90;;;;;;5011958;28;20066;-49
2022/11/30 03:33:16;;;;;;;3.97;3.03;;;22.40;99.90;;;;;;5010496;28;20029;-50
2022/11/30 03:35:43;;;;;;;7.38;3.60;;;22.50;99.90;;;;;;5004157;28;20044;-49
2022/11/30 03:38:09;;;;;;;5.22;3.45;;;22.40;99.90;;;;;;5015736;28;20049;-49
2022/11/30 03:40:37;;;;;;;6.22;3.70;;;22.40;99.90;;;;;;5015429;28;20050;-49
2022/11/30 03:43:04;;;;;;;4.60;3.42;;;22.40;99.90;;;;;;5015540;28;20081;-50
2022/11/30 03:45:30;;;;;;;6.00;3.45;;;22.40;99.90;;;;;;5015487;28;20028;-50
2022/11/30 03:47:55;;;;;;;4.03;3.08;;;22.40;99.90;;;;;;5015696;28;20453;-49
2022/11/30 03:50:21;;;;;;;7.20;3.90;;;22.40;99.90;;;;;;5015419;28;20076;-49
2022/11/30 03:52:47;;;;;;;5.22;3.20;;;22.40;99.90;;;;;;5015205;28;20073;-49
2022/11/30 03:55:13;;;;;;;6.00;3.78;;;22.40;99.90;;;;;;5015454;28;20497;-50
2022/11/30 03:57:39;;;;;;;5.85;3.45;;;22.40;99.90;;;;;;5015288;28;20516;-50
2022/11/30 04:00:06;;;;;;;6.13;3.47;;;22.40;99.90;;;;;;5021761;22;20082;-47
2022/11/30 04:02:32;;;;;;;7.25;4.18;;;22.30;99.90;;;;;;5006002;28;20026;-47
2022/11/30 04:04:57;;;;;;;5.53;3.63;;;22.30;99.90;;;;;;5015285;28;20029;-47
2022/11/30 04:07:23;;;;;;;7.20;3.42;;;22.30;99.90;;;;;;5015285;28;20022;-47
2022/11/30 04:09:49;;;;;;;6.28;4.15;;;22.40;99.90;;;;;;5015178;28;20462;-47
2022/11/30 04:12:15;;;;;;;8.93;3.92;;;22.30;99.90;;;;;;5014842;28;20038;-47
2022/11/30 04:14:41;;;;;;;4.43;3.13;;;22.30;99.90;;;;;;5014820;28;20021;-47
2022/11/30 04:17:06;;;;;;;5.93;3.72;;;22.30;99.90;;;;;;5015021;28;20022;-48
2022/11/30 04:19:32;;;;;;;5.63;3.72;;;22.30;99.90;;;;;;5014984;28;20088;-47
2022/11/30 04:21:58;;;;;;;6.38;3.72;;;22.30;99.90;;;;;;5015018;28;20378;-47
2022/11/30 04:24:23;;;;;;;5.57;3.65;;;22.30;99.90;;;;;;5014503;28;20446;-48
2022/11/30 04:26:49;;;;;;;4.53;3.13;;;22.30;99.90;;;;;;5013645;28;20030;-47
2022/11/30 04:29:15;;;;;;;4.80;3.20;;;22.30;99.90;;;;;;5014722;28;20026;-47
2022/11/30 04:31:41;;;;;;;5.55;3.70;;;22.20;99.90;;;;;;5014349;28;20033;-47
2022/11/30 04:34:06;;;;;;;5.13;3.53;;;22.20;99.90;;;;;;5005777;28;20018;-47
2022/11/30 04:36:32;;;;;;;4.82;3.50;;;22.20;99.90;;;;;;5009990;28;20025;-47
2022/11/30 04:38:58;;;;;;;4.45;3.13;;;22.20;99.90;;;;;;5013292;28;20030;-47
2022/11/30 04:41:23;;;;;;;5.65;3.45;;;22.20;99.90;;;;;;5014527;28;20026;-48
2022/11/30 04:43:49;;;;;;;5.80;3.85;;;22.20;99.90;;;;;;5014224;28;20505;-47
2022/11/30 04:46:15;;;;;;;4.50;3.35;;;22.20;99.90;;;;;;5013455;28;20512;-47
2022/11/30 04:48:41;;;;;;;4.75;3.50;;;22.20;99.90;;;;;;5014384;28;20026;-47
2022/11/30 04:51:07;;;;;;;5.53;3.50;;;22.20;99.90;;;;;;5014056;28;20386;-47
2022/11/30 04:53:35;;;;;;;5.67;3.23;;;22.20;99.90;;;;;;5014506;28;20136;-48
2022/11/30 04:56:09;;;;;;;4.03;3.17;;;22.20;99.90;;;;;;5014303;28;20470;-47
2022/11/30 04:58:35;;;;;;;5.55;3.63;;;22.20;99.90;;;;;;5014182;28;20057;-48
2022/11/30 05:01:01;;;;;;;5.35;3.40;;;22.10;99.90;;;;;;5013938;22;20383;-62
2022/11/30 05:03:27;;;;;;;5.20;3.60;;;22.10;99.90;;;;;;5011589;28;20100;-62
2022/11/30 05:05:53;;;;;;;5.75;3.47;;;22.10;99.90;;;;;;5013915;28;20105;-62
2022/11/30 05:08:19;;;;;;;5.40;3.22;;;22.10;99.90;;;;;;5013981;28;20025;-62
2022/11/30 05:10:44;;;;;;;4.57;3.20;;;22.10;99.90;;;;;;5013657;28;20040;-62
2022/11/30 05:13:10;;;;;;;3.60;2.80;;;22.10;99.90;;;;;;5012411;28;20375;-60
2022/11/30 05:15:36;;;;;;;4.07;2.90;;;22.10;99.90;;;;;;5012595;28;20022;-61
2022/11/30 05:18:02;;;;;;;5.10;3.47;;;22.10;99.90;;;;;;5012468;28;20117;-61
2022/11/30 05:20:28;;;;;;;4.43;3.30;;;22.10;99.90;;;;;;5013689;28;20112;-60
2022/11/30 05:22:54;;;;;;;4.28;3.33;;;22.10;99.90;;;;;;5013576;28;20084;-61
2022/11/30 05:25:19;;;;;;;4.85;3.53;;;22.00;99.90;;;;;;5013621;28;20026;-60
2022/11/30 05:27:45;;;;;;;5.13;3.50;;;22.00;99.90;;;;;;5013452;28;20057;-61
2022/11/30 05:30:12;;;;;;;5.55;3.58;;;22.00;99.90;;;;;;4995797;28;20014;-60
2022/11/30 05:32:37;;;;;;;6.18;3.85;;;22.00;99.90;;;;;;5013521;28;20041;-61
2022/11/30 05:35:03;;;;;;;4.10;3.28;;;22.00;99.90;;;;;;4999831;28;20014;-61
2022/11/30 05:37:29;;;;;;;4.95;3.53;;;22.00;99.90;;;;;;5013260;28;20041;-61
2022/11/30 05:39:55;;;;;;;4.25;3.08;;;22.00;99.90;;;;;;5013346;28;20029;-62
2022/11/30 05:42:21;;;;;;;4.40;3.35;;;22.00;99.90;;;;;;5013065;28;20025;-60
2022/11/30 05:44:47;;;;;;;5.03;3.35;;;22.00;99.90;;;;;;5013296;28;20033;-61
2022/11/30 05:47:12;;;;;;;4.40;2.90;;;22.00;99.90;;;;;;5013218;28;20386;-61
2022/11/30 05:49:38;;;;;;;6.03;3.42;;;22.00;99.90;;;;;;5013150;28;20092;-61
2022/11/30 05:52:04;;;;;;;6.40;3.15;;;21.90;99.90;;;;;;5013279;28;20497;-61
2022/11/30 05:54:30;;;;;;;4.93;2.70;;;21.90;99.90;;;;;;5012940;28;20034;-61
2022/11/30 05:56:55;;;;;;;4.78;3.33;;;21.90;99.90;;;;;;5011619;28;20022;-61
2022/11/30 05:59:22;;;;;;;4.60;3.13;;;21.90;99.90;;;;;;5013248;28;20026;-60
2022/11/30 06:01:47;;;;;;;8.10;2.97;;;21.90;99.90;;;;;;5012655;28;20144;-62
2022/11/30 06:04:13;;;;;;;4.10;2.90;;;21.90;99.90;;;;;;5012920;28;20029;-62
2022/11/30 06:06:39;;;;;;;3.85;3.10;;;21.90;99.90;;;;;;5012869;28;20033;-62
2022/11/30 06:09:05;;;;;;;4.25;3.10;;;21.90;99.90;;;;;;5013019;28;20026;-61
2022/11/30 06:11:30;;;;;;;4.57;2.70;;;21.90;99.90;;;;;;5012769;28;20022;-61
2022/11/30 06:13:56;;;;;;;3.88;2.70;;;21.90;99.90;;;;;;5012526;28;20048;-61
2022/11/30 06:16:22;;;;;;;7.22;3.10;;;21.90;99.90;;;;;;5011363;28;20484;-61
2022/11/30 06:18:47;;;;;;;5.30;2.80;;;21.80;99.90;;;;;;5012795;28;20029;-61
2022/11/30 06:21:13;;;;;;;4.03;2.75;;;21.80;99.90;;;;;;5012678;28;20033;-61
2022/11/30 06:23:39;;;;;;;6.90;2.63;;;21.80;99.90;;;;;;5012818;28;20010;-62
2022/11/30 06:26:07;;;;;;;4.43;2.65;;;21.80;99.90;;;;;;5012626;28;20041;-62
2022/11/30 06:28:34;;;;;;;8.88;3.40;;;21.80;99.90;;;;;;5012231;28;20018;-62
2022/11/30 06:31:00;;;;;;;7.32;3.22;;;21.80;99.90;;;;;;5012531;28;20497;-62
2022/11/30 06:33:27;;;;;;;6.63;2.90;;;21.80;99.90;;;;;;5008845;28;20030;-62
2022/11/30 06:35:52;;;;;;;4.38;2.47;;;21.80;99.90;;;;;;5002336;28;20252;-61
2022/11/30 06:38:18;;;;;;;4.60;2.28;;;21.80;99.90;;;;;;5012481;28;20550;-61
2022/11/30 06:40:44;;;;;;;3.53;2.50;;;21.80;99.90;;;;;;5012080;28;20109;-60
2022/11/30 06:43:10;;;;;;;5.05;3.03;;;21.70;99.90;;;;;;5012605;28;20029;-62
2022/11/30 06:45:35;;;;;;;6.38;2.50;;;21.70;99.90;;;;;;5012416;28;20056;-61
2022/11/30 06:48:01;;;;;;;5.25;2.92;;;21.70;99.90;;;;;;5012263;28;20056;-61
2022/11/30 06:50:27;;;;;;;5.90;2.78;;;21.70;99.90;;;;;;5012225;28;20030;-61
2022/11/30 06:52:55;;;;;;;6.97;3.03;;;21.70;99.90;;;;;;5011793;28;20034;-61
2022/11/30 06:55:21;;;;;;;6.68;2.70;;;21.70;99.90;;;;;;5012238;28;20037;-62
2022/11/30 06:57:46;;;;;;;5.75;3.15;;;21.70;99.90;;;;;;5012044;28;20026;-62
2022/11/30 07:00:13;;;;;;;6.15;2.72;;;21.70;99.90;;;;;;5011926;28;20057;-63
2022/11/30 07:02:39;;;;;;;6.85;2.83;;;21.70;99.90;;;;;;5012260;28;20485;-61
2022/11/30 07:05:05;;;;;;;14.15;2.55;;;21.70;99.90;;;;;;5011944;28;20052;-62
2022/11/30 07:07:31;;;;;;;6.60;3.15;;;21.60;99.90;;;;;;5011977;28;20467;-62
2022/11/30 07:09:57;;;;;;;6.90;2.63;;;21.60;99.90;;;;;;5014920;28;20115;-62
2022/11/30 07:12:24;;;;;;;5.63;2.67;;;21.70;99.90;;;;;;5015878;28;20041;-62
2022/11/30 07:14:52;;;;;;;4.27;2.33;;;21.60;99.90;;;;;;5016042;28;20018;-61
2022/11/30 07:17:18;;;;;;;;;;;21.60;99.90;;;;;;5016434;28;20628;-61
2022/11/30 07:19:44;;;;;;;5.72;2.65;;;21.60;99.90;;;;;;5015727;28;20349;-63
2022/11/30 07:22:10;;;;;;;7.10;2.85;;;21.60;99.90;;;;;;5016282;28;20072;-61
2022/11/30 07:27:20;;;;;;;5.72;2.63;;;21.60;99.90;;;;;;5007918;28;20033;-62
2022/11/30 07:29:47;;;;;;;6.80;3.08;;;21.60;99.90;;;;;;5009914;28;20381;-61
2022/11/30 07:32:13;;;;;;;3.95;2.75;;;21.60;99.90;;;;;;5015723;28;20061;-61
2022/11/30 07:34:39;;;;;;;5.00;2.75;;;21.60;99.90;;;;;;5001274;28;20109;-62
2022/11/30 07:37:05;;;;;;;6.20;3.28;;;21.60;99.90;;;;;;5015421;28;20426;-60
2022/11/30 07:39:31;;;;;;;3.85;2.58;;;21.60;99.90;;;;;;5015346;28;20021;-60
2022/11/30 07:41:56;;;;;;;3.13;2.10;;;21.60;99.90;;;;;;5015340;28;20022;-60
2022/11/30 07:44:22;;;;;;;12.98;3.17;;;21.60;99.90;;;;;;5015318;28;20475;-60
2022/11/30 07:46:48;;;;;;;4.85;2.92;;;21.60;99.90;;;;;;5015232;28;20053;-61
2022/11/30 07:49:14;;;;;;;6.40;3.55;;;21.70;99.90;;;;;;4999631;28;20031;-61
2022/11/30 07:51:40;;;;;;;7.78;3.30;;;21.70;99.90;;;;;;5015202;28;20018;-62
2022/11/30 07:54:05;;;;;;;5.95;2.83;;;21.70;99.90;;;;;;5015260;28;20070;-62
2022/11/30 07:56:31;;;;;;;5.25;3.28;;;21.80;99.90;;;;;;5015065;28;20100;-61
2022/11/30 07:58:59;;;;;;;7.22;2.85;;;21.80;99.90;;;;;;5015153;28;20025;-62
2022/11/30 08:01:28;;;;;;;5.68;3.05;;;21.80;99.90;;;;;;5014800;28;20049;-63
2022/11/30 08:03:54;;;;;;;7.18;3.20;;;21.90;99.90;;;;;;5013785;28;20432;-62
2022/11/30 08:06:23;;;;;;;5.35;3.03;;;21.90;99.90;;;;;;5015203;28;20444;-63
2022/11/30 08:08:51;;;;;;;5.57;3.33;;;21.90;99.90;;;;;;5014983;28;20053;-63
2022/11/30 08:11:20;;;;;;;6.43;3.33;;;22.00;99.90;;;;;;5014996;28;20022;-62
2022/11/30 08:13:46;;;;;;;5.63;3.45;;;22.00;99.90;;;;;;5014774;28;20036;-62
2022/11/30 08:16:17;;;;;;;7.82;3.25;;;22.00;99.90;;;;;;5015061;28;20025;-62
2022/11/30 08:18:43;;;;;;;8.63;3.13;;;22.10;99.90;;;;;;5014747;28;20517;-63
2022/11/30 08:21:11;;;;;;;7.50;3.25;;;22.10;99.90;;;;;;5014707;28;20026;-62
2022/11/30 08:23:38;;;;;;;;;;;22.10;99.90;;;;;;5013835;28;20028;-62
2022/11/30 08:26:07;;;;;;;6.90;2.97;;;22.20;99.90;;;;;;5014683;28;19905;-64
2022/11/30 08:28:36;;;;;;;6.75;3.47;;;22.20;99.90;;;;;;5014424;28;20037;-64
2022/11/30 08:31:05;;;;;;;6.82;3.50;;;22.30;99.90;;;;;;5014477;28;20030;-64
2022/11/30 08:33:32;;;;;;;6.22;3.42;;;22.30;99.90;;;;;;5010103;28;20532;-64
2022/11/30 08:36:16;;;;;;;8.52;3.70;;;22.30;99.90;;;;;;5005307;28;20018;-64
2022/11/30 08:38:43;;;;;;;12.05;4.22;;;22.30;99.90;;;;;;5014542;28;20040;-64
2022/11/30 08:41:11;;;;;;;7.68;4.32;;;22.40;99.90;;;;;;5013142;28;20425;-64
2022/11/30 08:43:38;;;;;;;7.45;3.80;;;22.40;99.90;;;;;;5014176;28;20100;-64
2022/11/30 08:46:06;;;;;;;12.25;4.47;;;22.40;99.90;;;;;;5014275;28;20033;-64
2022/11/30 08:48:33;;;;;;;7.20;4.57;;;22.50;99.90;;;;;;5014175;28;20022;-64
2022/11/30 08:51:00;;;;;;;8.50;5.23;;;22.50;99.90;;;;;;5014012;28;20057;-64
2022/11/30 08:53:26;;;;;;;7.93;4.88;;;22.50;99.90;;;;;;5014123;28;20370;-65
2022/11/30 08:55:57;;;;;;;9.80;4.72;;;22.60;99.90;;;;;;5012741;28;20106;-64
2022/11/30 08:58:23;;;;;;;10.00;5.45;;;22.60;99.90;;;;;;5014072;28;20018;-64
2022/11/30 09:00:48;;;;;;;8.27;4.65;;;22.60;99.90;;;;;;5013895;28;20376;-64
2022/11/30 09:03:14;;;;;;;8.02;5.78;;;22.70;99.90;;;;;;5012796;28;20033;-65
2022/11/30 09:05:40;;;;;;;8.43;5.88;;;22.70;99.90;;;;;;5013623;28;20363;-64
2022/11/30 09:08:05;;;;;;;9.02;4.88;;;22.70;99.90;;;;;;5013793;28;20525;-64
2022/11/30 09:10:31;;;;;;;8.30;4.72;;;22.70;99.90;;;;;;5013680;28;20478;-64
2022/11/30 09:12:57;;;;;;;11.10;5.13;;;22.80;99.90;;;;;;5013652;28;20065;-65
2022/11/30 09:15:23;;;;;;;9.18;5.40;;;22.80;99.90;;;;;;5012424;28;20478;-65
2022/11/30 09:17:48;;;;;;;8.45;5.30;;;22.80;99.90;;;;;;5013468;28;20017;-64
2022/11/30 09:20:14;;;;;;;8.40;4.78;;;22.80;99.90;;;;;;5013787;28;20026;-65
2022/11/30 09:22:40;;;;;;;9.88;5.90;;;22.90;99.90;;;;;;5013385;28;20022;-64
2022/11/30 09:25:07;;;;;;;10.85;6.13;;;22.80;99.90;;;;;;5012326;28;20386;-65
2022/11/30 09:27:33;;;;;;;9.65;5.78;;;22.90;99.90;;;;;;5013231;28;20026;-64
2022/11/30 09:29:58;;;;;;;9.43;5.47;;;22.90;99.90;;;;;;5013011;28;20029;-63
2022/11/30 09:32:24;;;;;;;12.73;5.75;;;23.00;99.90;;;;;;5011205;28;20168;-64
2022/11/30 09:34:50;;;;;;;11.52;6.35;;;23.00;99.90;;;;;;4999473;28;20205;-65
2022/11/30 09:37:16;;;;;;;9.13;5.53;;;23.10;99.90;;;;;;5013258;28;20447;-64
2022/11/30 09:39:41;;;;;;;8.15;6.40;;;23.10;99.90;;;;;;5011622;28;20068;-64
2022/11/30 09:42:30;;;;;;;11.82;6.72;;;23.10;99.90;;;;;;5012873;28;20433;-62
2022/11/30 09:45:06;;;;;;;8.98;6.22;;;23.10;99.90;;;;;;5013176;28;20088;-64
2022/11/30 09:48:02;;;;;;;11.60;6.75;;;23.20;99.90;;;;;;5013126;28;20530;-64
2022/11/30 09:50:34;;;;;;;9.32;6.22;;;23.20;99.90;;;;;;5012999;28;20033;-64
2022/11/30 09:53:42;;;;;;;11.95;7.30;;;23.20;99.90;;;;;;5012981;28;20042;-65
2022/11/30 09:56:20;;;;;;;8.93;6.15;;;23.20;99.90;;;;;;4990463;28;20109;-64
2022/11/30 09:58:51;;;;;;;11.00;6.10;;;23.30;99.90;;;;;;5013137;28;20025;-65
2022/11/30 10:01:19;;;;;;;10.48;6.40;;;23.30;99.90;;;;;;5012832;28;20498;-64
2022/11/30 10:03:46;;;;;;;10.57;6.15;;;23.40;99.90;;;;;;5012797;28;20026;-64
2022/11/30 10:06:22;;;;;;;14.23;6.80;;;23.40;99.90;;;;;;5012842;28;20018;-64
2022/11/30 10:09:06;;;;;;;9.05;6.50;;;23.50;99.90;;;;;;5012500;28;20026;-65
2022/11/30 10:11:43;;;;;;;10.52;6.65;;;23.50;99.90;;;;;;5012710;28;20041;-65
2022/11/30 10:14:27;;;;;;;8.55;6.07;;;23.60;99.90;;;;;;5012405;28;20030;-62
2022/11/30 10:16:58;;;;;;;13.60;6.53;;;23.60;99.90;;;;;;4999182;28;20054;-61
2022/11/30 10:19:39;;;;;;;9.38;6.45;;;23.70;99.90;;;;;;5011657;28;20030;-62
2022/11/30 10:22:33;;;;;;;12.95;7.22;;;23.80;99.90;;;;;;5012576;28;20080;-64
2022/11/30 10:25:13;;;;;;;13.60;6.43;;;23.80;99.90;;;;;;5008327;28;20482;-63
2022/11/30 10:27:55;;;;;;;8.88;7.05;;;23.90;99.90;;;;;;5012186;28;20217;-64
2022/11/30 10:30:30;;;;;;;11.40;7.20;;;24.00;99.90;;;;;;5012608;28;20018;-62
2022/11/30 10:33:04;;;;;;;10.90;6.68;;;24.00;99.90;;;;;;5010950;28;20060;-63
2022/11/30 10:35:48;;;;;;;9.40;6.63;;;24.10;99.90;;;;;;4980784;28;20025;-63
2022/11/30 10:38:24;;;;;;;12.35;6.95;;;24.10;99.90;;;;;;5012013;28;20077;-63
2022/11/30 10:41:02;;;;;;;11.55;6.93;;;24.10;99.90;;;;;;5012379;28;20018;-63
2022/11/30 10:43:44;;;;;;;12.77;7.68;;;24.10;99.90;;;;;;5011266;28;20022;-63
2022/11/30 10:46:21;;;;;;;14.32;7.78;;;24.20;99.90;;;;;;5012058;28;20010;-63
2022/11/30 10:49:01;;;;;;;12.18;7.45;;;24.20;99.90;;;;;;5012357;28;20549;-62
2022/11/30 10:51:28;;;;;;;11.75;7.32;;;24.20;99.90;;;;;;5012091;28;20049;-63
2022/11/30 10:53:54;;;;;;;11.80;7.63;;;24.20;99.90;;;;;;5012126;28;20042;-63
2022/11/30 10:56:19;;;;;;;13.30;8.05;;;24.20;99.90;;;;;;5011003;28;20048;-63
2022/11/30 10:59:22;;;;;;;13.00;8.38;;;24.30;99.90;;;;;;5012095;28;20101;-63
2022/11/30 11:01:48;;;;;;;14.05;7.65;;;24.30;99.90;;;;;;4990721;28;20108;-63
2022/11/30 11:04:15;;;;;;;13.02;7.45;;;24.30;99.90;;;;;;5012209;28;20034;-63
2022/11/30 11:06:57;;;;;;;13.48;7.95;;;24.30;99.90;;;;;;5012153;28;20510;-62
2022/11/30 11:09:30;;;;;;;13.10;7.88;;;24.40;99.90;;;;;;5010845;28;20121;-63
2022/11/30 11:12:02;;;;;;;15.10;8.65;;;24.40;99.90;;;;;;5010614;28;20394;-63
2022/11/30 11:14:28;;;;;;;9.23;7.45;;;24.40;99.90;;;;;;5012024;28;20022;-63
2022/11/30 11:17:01;;;;;;;15.18;8.57;;;24.50;99.90;;;;;;5012191;28;20030;-63
2022/11/30 11:19:33;;;;;;;11.80;8.35;;;24.50;99.90;;;;;;5010482;28;20033;-63
2022/11/30 11:22:24;;;;;;;12.57;8.23;;;24.50;99.90;;;;;;5011847;28;20061;-63
2022/11/30 11:25:12;;;;;;;11.63;7.93;;;24.50;99.90;;;;;;5011813;28;20025;-63
2022/11/30 11:27:39;;;;;;;15.68;9.57;;;24.50;99.90;;;;;;5011548;28;20026;-63
2022/11/30 11:30:23;;;;;;;11.10;7.90;;;24.50;99.90;;;;;;5011587;28;20033;-63
2022/11/30 11:33:01;;;;;;;13.90;8.82;;;24.60;99.90;;;;;;5011617;28;20490;-63
2022/11/30 11:35:31;;;;;;;11.18;8.45;;;24.60;99.90;;;;;;4979506;28;20033;-62
2022/11/30 11:37:57;;;;;;;12.05;7.93;;;24.60;99.90;;;;;;5011875;28;20084;-64
2022/11/30 11:40:23;;;;;;;11.05;7.88;;;24.60;99.90;;;;;;5011793;28;20484;-63
2022/11/30 11:42:52;;;;;;;13.32;8.50;;;24.60;99.90;;;;;;5011746;28;20108;-62
2022/11/30 11:45:21;;;;;;;11.32;7.43;;;24.60;99.90;;;;;;5011606;28;20025;-62
2022/11/30 11:48:08;;;;;;;13.57;8.10;;;24.70;99.90;;;;;;5011574;28;20044;-62
2022/11/30 11:50:37;;;;;;;13.60;8.52;;;24.70;99.90;;;;;;5011610;28;20064;-62
2022/11/30 11:53:23;;;;;;;15.30;7.85;;;24.70;99.90;;;;;;5011344;28;20050;-62
2022/11/30 11:56:18;;;;;;;11.88;8.23;;;24.70;99.90;;;;;;5015051;28;20069;-62
2022/11/30 11:59:01;;;;;;;14.07;8.63;;;24.80;99.90;;;;;;4983470;28;20030;-63
2022/11/30 12:01:49;;;;;;;14.77;8.30;;;24.80;99.90;;;;;;5014964;28;20066;-62
2022/11/30 12:04:31;;;;;;;11.02;8.10;;;24.80;99.90;;;;;;5014962;28;20071;-62
2022/11/30 12:07:01;;;;;;;13.00;8.18;;;24.80;99.90;;;;;;5015195;28;20025;-62
2022/11/30 12:09:32;;;;;;;12.65;9.02;;;24.90;99.90;;;;;;5014041;28;20022;-62
2022/11/30 12:11:58;;;;;;;12.65;8.50;;;24.90;99.90;;;;;;5014985;28;20022;-62
2022/11/30 12:14:25;;;;;;;13.07;7.80;;;24.90;99.90;;;;;;5014990;28;20025;-62
2022/11/30 12:16:59;;;;;;;11.65;8.43;;;25.00;99.90;;;;;;5014813;28;20101;-62
2022/11/30 12:19:34;;;;;;;11.85;8.15;;;25.00;99.90;;;;;;5001200;28;20592;-62
2022/11/30 12:22:32;;;;;;;11.13;7.60;;;25.00;99.90;;;;;;5014720;28;20466;-62
2022/11/30 12:25:28;;;;;;;11.85;8.50;;;25.00;99.90;;;;;;4999050;28;20109;-62
2022/11/30 12:28:26;;;;;;;14.18;8.02;;;25.00;99.90;;;;;;5014715;28;20026;-62
2022/11/30 12:31:15;;;;;;;12.82;8.45;;;25.10;99.90;;;;;;5012443;28;20057;-62
2022/11/30 12:33:40;;;;;;;15.55;8.32;;;25.10;99.90;;;;;;5009059;28;20033;-62
2022/11/30 12:36:15;;;;;;;10.00;7.10;;;25.20;99.90;;;;;;5005987;28;20018;-62
2022/11/30 12:38:41;;;;;;;11.18;7.82;;;25.10;99.90;;;;;;5014189;28;20497;-63
2022/11/30 12:41:37;;;;;;;10.57;6.97;;;25.10;99.90;;;;;;5014267;28;20021;-63
2022/11/30 12:44:14;;;;;;;10.02;7.38;;;25.20;99.90;;;;;;5014255;28;20013;-62
2022/11/30 12:46:48;;;;;;;10.43;7.60;;;25.10;99.90;;;;;;5014357;28;20379;-63
2022/11/30 12:49:56;;;;;;;11.70;7.00;;;25.10;99.90;;;;;;5012890;28;20030;-63
2022/11/30 12:52:35;;;;;;;12.30;6.65;;;25.10;99.90;;;;;;5014008;28;20390;-62
2022/11/30 12:55:38;;;;;;;12.63;7.35;;;25.10;99.90;;;;;;5014042;28;20026;-63
2022/11/30 12:58:35;;;;;;;12.07;7.38;;;25.10;99.90;;;;;;5000180;28;20037;-63
2022/11/30 13:01:24;;;;;;;10.75;6.50;;;25.10;99.90;;;;;;5013945;28;20104;-62
2022/11/30 13:04:08;;;;;;;9.05;6.22;;;25.10;99.90;;;;;;5013945;28;20097;-63